createdAt,value
2022-09-07T00:04:45.287Z,4.97
2022-09-07T00:09:51.764Z,5.65
2022-09-07T00:14:57.295Z,5.50
2022-09-07T00:20:06.163Z,5.03
2022-09-07T00:25:12.469Z,4.40
2022-09-07T00:30:17.778Z,5.20
2022-09-07T00:35:25.691Z,4.80
2022-09-07T00:40:31.264Z,5.00
2022-09-07T00:45:36.732Z,4.97
2022-09-07T00:50:47.194Z,4.65
2022-09-07T00:55:54.593Z,4.90
2022-09-07T01:00:59.754Z,4.60
2022-09-07T01:06:17.529Z,4.55
2022-09-07T01:11:24.807Z,4.78
2022-09-07T01:22:01.354Z,4.65
2022-09-07T01:27:34.070Z,4.93
2022-09-07T01:32:52.860Z,5.57
2022-09-07T01:38:04.579Z,4.97
2022-09-07T01:43:17.806Z,5.00
2022-09-07T01:48:23.997Z,5.03
2022-09-07T01:53:34.278Z,4.88
2022-09-07T01:58:45.524Z,5.35
2022-09-07T02:03:54.296Z,5.28
2022-09-07T02:09:03.490Z,6.03
2022-09-07T02:14:14.173Z,4.45
2022-09-07T02:19:20.173Z,5.80
2022-09-07T02:24:28.758Z,5.65
2022-09-07T02:29:36.679Z,5.20
2022-09-07T02:34:41.985Z,5.53
2022-09-07T02:39:48.012Z,5.18
2022-09-07T02:44:55.839Z,4.68
2022-09-07T02:50:25.690Z,4.97
2022-09-07T02:55:38.221Z,5.35
2022-09-07T03:00:50.748Z,5.38
2022-09-07T03:05:59.599Z,5.45
2022-09-07T03:11:07.202Z,5.35
2022-09-07T03:16:17.221Z,5.30
2022-09-07T03:21:22.455Z,5.88
2022-09-07T03:26:28.569Z,5.28
2022-09-07T03:31:38.667Z,5.53
2022-09-07T03:36:43.932Z,5.72
2022-09-07T03:41:49.053Z,5.72
2022-09-07T03:46:56.807Z,6.30
2022-09-07T03:52:01.967Z,5.65
2022-09-07T03:57:07.318Z,6.20
2022-09-07T04:02:15.239Z,5.93
2022-09-07T04:07:20.444Z,6.15
2022-09-07T04:12:26.309Z,6.50
2022-09-07T04:17:34.091Z,6.50
2022-09-07T04:22:39.273Z,6.60
2022-09-07T04:27:44.435Z,7.55
2022-09-07T04:32:52.406Z,6.97
2022-09-07T04:37:57.588Z,7.38
2022-09-07T04:43:02.833Z,6.70
2022-09-07T04:48:10.703Z,7.57
2022-09-07T04:53:15.928Z,7.88
2022-09-07T04:58:21.052Z,8.38
2022-09-07T05:03:28.859Z,7.35
2022-09-07T05:08:38.420Z,7.45
2022-09-07T05:13:43.729Z,9.18
2022-09-07T05:18:53.200Z,8.40
2022-09-07T05:24:00.105Z,7.40
2022-09-07T05:34:34.338Z,7.05
2022-09-07T05:39:39.493Z,7.53
2022-09-07T05:44:45.414Z,6.22
2022-09-07T05:49:56.981Z,6.43
2022-09-07T05:55:28.241Z,5.47
2022-09-07T06:00:27.825Z,4.95
2022-09-07T06:05:35.574Z,4.90
2022-09-07T06:16:08.894Z,4.07
2022-09-07T06:21:18.536Z,4.53
2022-09-07T06:26:23.847Z,3.97
2022-09-07T06:31:29.603Z,4.47
2022-09-07T06:36:37.537Z,3.83
2022-09-07T06:47:03.683Z,4.47
2022-09-07T06:52:12.199Z,4.28
2022-09-07T06:57:17.346Z,3.47
2022-09-07T07:02:22.612Z,4.55
2022-09-07T07:07:31.174Z,3.95
2022-09-07T07:17:40.327Z,4.30
2022-09-07T07:22:48.231Z,4.70
2022-09-07T07:27:53.733Z,4.20
2022-09-07T07:32:59.125Z,3.63
2022-09-07T07:43:37.836Z,3.88
2022-09-07T07:48:43.532Z,3.17
2022-09-07T07:53:51.838Z,4.28
2022-09-07T07:58:57.168Z,4.63
2022-09-07T08:04:02.390Z,4.30
2022-09-07T08:09:11.238Z,3.70
2022-09-07T08:14:16.445Z,3.45
2022-09-07T08:19:21.522Z,3.58
2022-09-07T08:24:29.152Z,3.08
2022-09-07T08:29:35.502Z,3.33
2022-09-07T08:34:40.710Z,2.85
2022-09-07T08:39:48.469Z,2.70
2022-09-07T08:44:55.318Z,3.35
2022-09-07T08:50:04.892Z,3.67
2022-09-07T08:55:19.776Z,3.40
2022-09-07T09:00:25.121Z,3.38
2022-09-07T09:05:35.122Z,3.78
2022-09-07T09:10:49.542Z,3.20
2022-09-07T09:16:03.752Z,3.13
2022-09-07T09:21:12.793Z,3.00
2022-09-07T09:26:24.772Z,2.72
2022-09-07T09:31:34.861Z,2.30
2022-09-07T09:36:45.755Z,2.65
2022-09-07T09:41:53.730Z,4.38
2022-09-07T10:14:01.316Z,3.28
2022-09-07T10:19:06.316Z,3.47
2022-09-07T10:24:18.041Z,4.13
2022-09-07T10:29:36.122Z,4.13
2022-09-07T10:34:47.824Z,3.00
2022-09-07T10:40:01.760Z,2.63
2022-09-07T10:45:17.432Z,3.03
2022-09-07T10:50:29.736Z,3.20
2022-09-07T10:55:36.744Z,3.15
2022-09-07T11:00:50.587Z,3.10
2022-09-07T11:06:06.189Z,2.97
2022-09-07T11:11:16.357Z,3.08
2022-09-07T11:21:59.914Z,3.45
2022-09-07T11:27:10.532Z,4.30
2022-09-07T11:32:22.833Z,3.60
2022-09-07T11:42:44.312Z,3.03
2022-09-07T11:47:56.204Z,2.90
2022-09-07T11:53:03.800Z,2.85
2022-09-07T11:58:28.791Z,3.25
2022-09-07T12:03:49.334Z,2.95
2022-09-07T12:09:03.993Z,3.08
2022-09-07T12:14:21.765Z,4.13
2022-09-07T12:19:30.702Z,2.75
2022-09-07T12:24:44.807Z,3.22
2022-09-07T12:29:50.677Z,2.85
2022-09-07T12:35:01.954Z,3.03
2022-09-07T12:40:37.559Z,2.80
2022-09-07T12:45:55.588Z,2.95
2022-09-07T12:51:07.565Z,2.78
2022-09-07T12:56:37.577Z,2.65
2022-09-07T13:02:10.456Z,2.30
2022-09-07T13:07:42.687Z,1.98
2022-09-07T13:13:17.801Z,1.83
2022-09-07T13:18:49.833Z,1.75
2022-09-07T13:24:46.961Z,1.75
2022-09-07T13:30:24.897Z,1.67
2022-09-07T13:35:35.229Z,1.67
2022-09-07T13:40:42.763Z,2.13
2022-09-07T13:46:05.951Z,2.40
2022-09-07T13:51:17.535Z,2.60
2022-09-07T13:57:12.055Z,2.22
2022-09-07T14:30:58.662Z,2.58
2022-09-07T14:36:39.521Z,2.50
2022-09-07T14:58:34.123Z,2.25
2022-09-07T15:03:56.880Z,2.35
2022-09-07T15:09:01.991Z,2.38
2022-09-07T15:52:07.919Z,3.70
2022-09-07T17:54:35.024Z,4.03
2022-09-07T18:05:18.331Z,3.95
2022-09-07T18:10:23.746Z,3.67
2022-09-07T18:15:29.450Z,4.50
2022-09-07T18:20:37.946Z,4.18
2022-09-07T18:25:43.053Z,3.25
2022-09-07T18:30:48.149Z,3.83
2022-09-07T18:35:55.941Z,3.70
2022-09-07T18:41:04.697Z,3.22
2022-09-07T18:46:12.579Z,3.97
2022-09-07T18:51:24.905Z,3.60
2022-09-07T18:56:30.111Z,3.63
2022-09-07T19:01:44.254Z,4.10
2022-09-07T19:06:51.952Z,3.90
2022-09-07T19:11:56.956Z,4.72
2022-09-07T19:17:02.405Z,4.40
2022-09-07T19:22:10.159Z,4.20
2022-09-07T19:27:16.100Z,4.10
2022-09-07T19:32:21.445Z,4.10
2022-09-07T19:37:32.112Z,3.95
2022-09-07T19:42:37.352Z,4.28
2022-09-07T19:47:42.560Z,3.47
2022-09-07T19:52:50.727Z,3.83
2022-09-07T19:57:59.844Z,4.25
2022-09-07T20:03:05.105Z,3.97
2022-09-07T20:08:17.014Z,4.78
2022-09-07T20:13:24.118Z,3.80
2022-09-07T20:18:31.470Z,4.63
2022-09-07T20:23:39.538Z,5.47
2022-09-07T20:28:45.456Z,7.07
2022-09-07T20:33:51.979Z,6.38
2022-09-07T20:38:59.996Z,5.47
2022-09-07T20:44:06.892Z,4.78
2022-09-07T20:54:32.724Z,4.47
2022-09-07T20:59:37.893Z,4.43
2022-09-07T21:04:43.556Z,5.50
2022-09-07T21:09:51.148Z,5.47
2022-09-07T21:14:56.152Z,5.47
2022-09-07T21:20:01.089Z,4.72
2022-09-07T21:25:10.907Z,4.55
2022-09-07T21:30:17.331Z,4.57
2022-09-07T21:35:22.935Z,5.18
2022-09-07T21:40:30.613Z,5.03
2022-09-07T21:45:35.944Z,4.85
2022-09-07T21:50:40.998Z,3.97
2022-09-07T21:55:49.430Z,4.43
2022-09-07T22:00:54.603Z,4.72
2022-09-07T22:05:59.686Z,4.70
2022-09-07T22:11:12.041Z,5.13
2022-09-07T22:16:17.610Z,5.68
2022-09-07T22:21:24.234Z,4.35
2022-09-07T22:26:33.520Z,4.68
2022-09-07T22:31:41.247Z,5.10
2022-09-07T22:36:47.532Z,5.93
2022-09-07T22:41:55.100Z,4.47
2022-09-07T22:47:00.361Z,4.80
2022-09-07T22:52:06.003Z,4.45
2022-09-07T22:57:13.569Z,4.53
2022-09-07T23:02:18.654Z,4.88
2022-09-07T23:07:23.666Z,6.22
2022-09-07T23:12:31.407Z,4.70
2022-09-07T23:17:42.420Z,5.57
2022-09-07T23:22:47.501Z,4.82
2022-09-07T23:27:55.703Z,4.47
2022-09-07T23:33:00.947Z,4.35
2022-09-07T23:38:05.998Z,4.95
2022-09-07T23:43:13.785Z,4.28
2022-09-07T23:48:19.245Z,4.18
2022-09-07T23:53:25.049Z,4.70
2022-09-07T23:58:35.093Z,4.20
